Time;durP1;ratioP1;P1;durP2;ratioP2;P2;SDS_P1;SDS_P2;PMS_P1;PMS_P2;Temp;Humidity;BMP_temperature;BMP_pressure;BME280_temperature;BME280_humidity;BME280_pressure;Samples;Min_cycle;Max_cycle;Signal;HPM_P1;HPM_P2
2021/08/29 00:01:15;;;;;;;2.50;1.80;;;;;;;;;;6339804;22;20173;-59
2021/08/29 00:03:41;;;;;;;5.05;1.95;;;;;;;;;;6339946;22;20134;-59
2021/08/29 00:06:07;;;;;;;2.70;1.83;;;;;;;;;;6339771;22;20138;-59
2021/08/29 00:08:33;;;;;;;4.25;2.13;;;;;;;;;;6339789;22;20291;-59
2021/08/29 00:10:59;;;;;;;3.42;1.73;;;;;;;;;;6339909;22;20168;-59
2021/08/29 00:13:25;;;;;;;2.90;1.90;;;;;;;;;;6339728;22;20555;-59
2021/08/29 00:15:51;;;;;;;2.67;2.10;;;;;;;;;;6339949;22;20146;-59
2021/08/29 00:18:17;;;;;;;3.10;1.95;;;;;;;;;;6339638;22;20138;-59
2021/08/29 00:20:44;;;;;;;2.47;1.90;;;;;;;;;;6339478;22;20162;-59
2021/08/29 00:23:10;;;;;;;2.90;1.90;;;;;;;;;;6339625;22;20141;-59
2021/08/29 00:25:36;;;;;;;2.50;1.77;;;;;;;;;;6339681;22;20149;-59
2021/08/29 00:28:03;;;;;;;3.90;2.05;;;;;;;;;;6339569;22;20134;-59
2021/08/29 00:30:29;;;;;;;3.17;2.30;;;;;;;;;;6339705;22;20149;-59
2021/08/29 00:32:55;;;;;;;3.20;2.30;;;;;;;;;;6339447;22;20138;-60
2021/08/29 00:35:21;;;;;;;3.67;2.40;;;;;;;;;;6339394;22;20134;-58
2021/08/29 00:37:47;;;;;;;4.28;2.20;;;;;;;;;;6339431;22;20141;-60
2021/08/29 00:40:15;;;;;;;4.35;2.35;;;;;;;;;;6339177;22;20217;-59
2021/08/29 00:42:42;;;;;;;2.70;2.00;;;;;;;;;;6339749;22;20138;-58
2021/08/29 00:45:08;;;;;;;4.80;3.15;;;;;;;;;;6339244;22;20149;-59
2021/08/29 00:47:34;;;;;;;3.78;2.60;;;;;;;;;;6339658;22;20207;-59
2021/08/29 00:50:02;;;;;;;2.80;2.58;;;;;;;;;;6339569;22;20152;-59
2021/08/29 00:52:28;;;;;;;3.40;3.10;;;;;;;;;;6339148;22;20555;-59
2021/08/29 00:54:54;;;;;;;3.85;2.75;;;;;;;;;;6339203;22;20149;-59
2021/08/29 00:57:20;;;;;;;3.80;2.50;;;;;;;;;;6339379;22;20169;-59
2021/08/29 00:59:46;;;;;;;5.20;2.65;;;;;;;;;;6339166;22;20142;-58
2021/08/29 01:02:13;;;;;;;2.83;2.50;;;;;;;;;;6338925;22;20231;-57
2021/08/29 01:04:44;;;;;;;4.88;2.90;;;;;;;;;;6339094;22;20608;-57
2021/08/29 01:07:15;;;;;;;4.80;2.42;;;;;;;;;;6339061;22;20123;-58
2021/08/29 01:09:42;;;;;;;3.95;2.50;;;;;;;;;;6339177;22;20191;-59
2021/08/29 01:12:08;;;;;;;4.15;2.83;;;;;;;;;;6339004;22;20279;-59
2021/08/29 01:14:35;;;;;;;2.92;2.72;;;;;;;;;;6338974;22;20283;-59
2021/08/29 01:17:03;;;;;;;3.35;2.90;;;;;;;;;;6338793;22;20191;-59
2021/08/29 01:19:36;;;;;;;5.03;2.85;;;;;;;;;;6338884;22;20471;-59
2021/08/29 01:22:03;;;;;;;3.70;2.65;;;;;;;;;;6338660;22;20476;-59
2021/08/29 01:24:29;;;;;;;5.13;2.78;;;;;;;;;;6339226;22;20406;-59
2021/08/29 01:27:03;;;;;;;3.08;2.60;;;;;;;;;;6338681;22;20149;-59
2021/08/29 01:29:29;;;;;;;3.55;2.90;;;;;;;;;;6339180;22;20127;-59
2021/08/29 01:31:55;;;;;;;6.65;2.75;;;;;;;;;;6338810;22;20134;-59
2021/08/29 01:34:22;;;;;;;3.97;2.90;;;;;;;;;;6338700;22;20142;-59
2021/08/29 01:36:50;;;;;;;3.13;2.47;;;;;;;;;;6338968;22;20199;-59
2021/08/29 01:39:16;;;;;;;3.67;2.80;;;;;;;;;;6338689;22;20138;-58
2021/08/29 01:41:44;;;;;;;2.40;2.17;;;;;;;;;;6338514;22;20174;-58
2021/08/29 01:44:10;;;;;;;3.33;2.70;;;;;;;;;;6338674;22;20134;-59
2021/08/29 01:46:36;;;;;;;2.53;2.30;;;;;;;;;;6338585;22;20138;-58
2021/08/29 01:49:03;;;;;;;3.58;2.47;;;;;;;;;;6338703;22;20176;-58
2021/08/29 01:51:30;;;;;;;3.90;2.90;;;;;;;;;;6338838;22;20143;-58
2021/08/29 01:53:55;;;;;;;2.63;2.42;;;;;;;;;;6338548;22;20152;-59
2021/08/29 01:56:21;;;;;;;4.40;2.58;;;;;;;;;;6338511;22;20149;-58
2021/08/29 01:58:47;;;;;;;5.07;2.10;;;;;;;;;;6338571;22;20187;-59
2021/08/29 02:01:13;;;;;;;2.92;2.60;;;;;;;;;;6338742;22;20165;-58
2021/08/29 02:03:40;;;;;;;2.55;2.33;;;;;;;;;;6338879;22;20240;-58
2021/08/29 02:06:12;;;;;;;4.13;2.30;;;;;;;;;;6338419;22;20145;-59
2021/08/29 02:08:39;;;;;;;3.03;2.72;;;;;;;;;;6339129;22;20142;-62
2021/08/29 02:11:06;;;;;;;3.72;2.45;;;;;;;;;;6338378;22;20167;-62
2021/08/29 02:13:34;;;;;;;5.18;2.45;;;;;;;;;;6338793;22;20150;-62
2021/08/29 02:16:04;;;;;;;5.13;2.60;;;;;;;;;;6338466;22;20142;-62
2021/08/29 02:18:33;;;;;;;4.82;2.80;;;;;;;;;;6338428;22;20443;-63
2021/08/29 02:21:00;;;;;;;3.38;2.50;;;;;;;;;;6338293;22;20194;-63
2021/08/29 02:23:28;;;;;;;4.80;2.65;;;;;;;;;;6338264;22;20138;-63
2021/08/29 02:25:54;;;;;;;3.72;2.65;;;;;;;;;;6338545;22;20230;-63
2021/08/29 02:28:20;;;;;;;3.20;2.67;;;;;;;;;;6338382;22;20221;-63
2021/08/29 02:30:46;;;;;;;4.75;2.70;;;;;;;;;;6338506;22;20230;-63
2021/08/29 02:33:12;;;;;;;2.70;2.50;;;;;;;;;;6338379;22;20142;-63
2021/08/29 02:35:41;;;;;;;4.82;3.03;;;;;;;;;;6338909;22;20141;-63
2021/08/29 02:38:07;;;;;;;4.32;3.00;;;;;;;;;;6338695;22;20142;-63
2021/08/29 02:40:36;;;;;;;4.30;3.05;;;;;;;;;;6338453;22;20142;-63
2021/08/29 02:43:02;;;;;;;4.22;2.90;;;;;;;;;;6339421;22;20134;-63
2021/08/29 02:45:29;;;;;;;5.05;3.33;;;;;;;;;;6340546;22;20148;-63
2021/08/29 02:47:55;;;;;;;3.45;2.92;;;;;;;;;;6340480;22;20134;-63
2021/08/29 02:50:21;;;;;;;3.83;3.03;;;;;;;;;;6341075;22;20217;-63
2021/08/29 02:52:47;;;;;;;4.30;2.70;;;;;;;;;;6340801;22;20172;-62
2021/08/29 02:55:15;;;;;;;3.28;2.83;;;;;;;;;;6341001;22;20441;-63
2021/08/29 02:57:41;;;;;;;3.45;3.15;;;;;;;;;;6340985;22;20158;-63
2021/08/29 03:00:10;;;;;;;4.25;2.80;;;;;;;;;;6340759;22;20438;-64
2021/08/29 03:02:36;;;;;;;3.53;3.20;;;;;;;;;;6340398;22;20168;-63
2021/08/29 03:05:02;;;;;;;5.68;3.20;;;;;;;;;;6340883;22;20172;-63
2021/08/29 03:07:28;;;;;;;4.05;3.03;;;;;;;;;;6340731;22;20145;-63
2021/08/29 03:09:54;;;;;;;4.22;3.40;;;;;;;;;;6340388;22;20566;-63
2021/08/29 03:12:20;;;;;;;3.60;3.30;;;;;;;;;;6340240;22;20144;-62
2021/08/29 03:14:46;;;;;;;4.05;3.03;;;;;;;;;;6340608;22;20145;-64
2021/08/29 03:17:12;;;;;;;3.83;2.97;;;;;;;;;;6340501;22;20233;-63
2021/08/29 03:19:39;;;;;;;5.72;3.30;;;;;;;;;;6340175;22;20177;-63
2021/08/29 03:22:05;;;;;;;4.45;2.63;;;;;;;;;;6340249;22;20174;-63
2021/08/29 03:24:31;;;;;;;5.32;2.85;;;;;;;;;;6340105;22;20149;-63
2021/08/29 03:26:57;;;;;;;5.50;2.70;;;;;;;;;;6339854;22;20153;-63
2021/08/29 03:29:23;;;;;;;3.67;2.67;;;;;;;;;;6340067;22;20134;-64
2021/08/29 03:31:49;;;;;;;4.72;2.65;;;;;;;;;;6339994;22;20203;-63
2021/08/29 03:34:17;;;;;;;3.58;2.25;;;;;;;;;;6339863;22;20215;-63
2021/08/29 03:36:44;;;;;;;3.40;2.20;;;;;;;;;;6340313;22;20165;-63
2021/08/29 03:39:11;;;;;;;3.70;2.47;;;;;;;;;;6340192;22;20150;-63
2021/08/29 03:41:39;;;;;;;2.63;1.90;;;;;;;;;;6339772;22;20161;-63
2021/08/29 03:44:05;;;;;;;1.73;1.63;;;;;;;;;;6340011;22;20213;-64
2021/08/29 03:46:31;;;;;;;2.65;1.90;;;;;;;;;;6339824;22;20213;-63
2021/08/29 03:48:57;;;;;;;3.10;1.60;;;;;;;;;;6312417;22;20423;-58
2021/08/29 03:51:23;;;;;;;2.58;2.20;;;;;;;;;;6339870;22;20200;-59
2021/08/29 03:53:50;;;;;;;3.42;2.13;;;;;;;;;;6339692;22;20446;-58
2021/08/29 03:56:16;;;;;;;2.95;1.75;;;;;;;;;;6339730;22;20153;-59
2021/08/29 03:58:42;;;;;;;1.90;1.80;;;;;;;;;;6339661;22;20141;-58
2021/08/29 04:01:08;;;;;;;3.30;2.13;;;;;;;;;;6339492;22;20166;-59
2021/08/29 04:03:34;;;;;;;4.75;2.10;;;;;;;;;;6339507;22;20148;-58
2021/08/29 04:06:01;;;;;;;4.03;2.38;;;;;;;;;;6339912;22;20485;-58
2021/08/29 04:08:31;;;;;;;2.88;1.98;;;;;;;;;;6339453;22;20435;-59
2021/08/29 04:10:59;;;;;;;1.70;1.60;;;;;;;;;;6339825;22;20521;-59
2021/08/29 04:13:26;;;;;;;2.95;1.88;;;;;;;;;;6339384;22;20138;-59
2021/08/29 04:15:52;;;;;;;3.30;1.80;;;;;;;;;;6339830;22;20142;-59
2021/08/29 04:18:20;;;;;;;2.10;1.83;;;;;;;;;;6339375;22;20227;-58
2021/08/29 04:20:46;;;;;;;2.45;1.70;;;;;;;;;;6339363;22;20174;-59
2021/08/29 04:23:12;;;;;;;3.20;2.00;;;;;;;;;;6339273;22;20145;-59
2021/08/29 04:25:38;;;;;;;1.85;1.75;;;;;;;;;;6339310;22;20160;-59
2021/08/29 04:28:04;;;;;;;3.65;1.60;;;;;;;;;;6339299;22;20160;-59
2021/08/29 04:30:30;;;;;;;2.08;1.80;;;;;;;;;;6339714;22;20139;-59
2021/08/29 04:32:56;;;;;;;3.25;1.70;;;;;;;;;;6339216;22;20589;-59
2021/08/29 04:35:22;;;;;;;2.65;1.80;;;;;;;;;;6339654;22;20134;-59
2021/08/29 04:37:48;;;;;;;3.28;1.80;;;;;;;;;;6339150;22;20138;-59
2021/08/29 04:40:14;;;;;;;2.42;1.90;;;;;;;;;;6339246;22;20551;-59
2021/08/29 04:42:40;;;;;;;3.80;1.90;;;;;;;;;;6339045;22;20173;-59
2021/08/29 04:45:06;;;;;;;2.95;1.98;;;;;;;;;;6339137;22;20134;-59
2021/08/29 04:47:32;;;;;;;2.35;2.15;;;;;;;;;;6339568;22;20138;-59
2021/08/29 04:49:58;;;;;;;3.13;2.22;;;;;;;;;;6339070;22;20186;-59
2021/08/29 04:52:24;;;;;;;3.42;2.25;;;;;;;;;;6339089;22;20141;-58
2021/08/29 04:54:50;;;;;;;2.38;2.10;;;;;;;;;;6339400;22;20146;-58
2021/08/29 04:57:15;;;;;;;3.17;1.95;;;;;;;;;;6339015;22;20138;-59
2021/08/29 04:59:41;;;;;;;2.50;2.30;;;;;;;;;;6338981;22;20138;-59
2021/08/29 05:02:07;;;;;;;4.10;1.83;;;;;;;;;;6338920;22;20184;-59
2021/08/29 05:04:33;;;;;;;3.92;2.00;;;;;;;;;;6339096;22;20142;-59
2021/08/29 05:06:59;;;;;;;3.05;2.03;;;;;;;;;;6338828;22;20145;-59
2021/08/29 05:09:25;;;;;;;2.17;1.98;;;;;;;;;;6339271;22;20134;-59
2021/08/29 05:11:51;;;;;;;2.50;2.30;;;;;;;;;;6338987;22;20145;-59
2021/08/29 05:14:17;;;;;;;4.53;2.10;;;;;;;;;;6338853;22;20150;-59
2021/08/29 05:16:43;;;;;;;2.03;1.85;;;;;;;;;;6338951;22;20141;-59
2021/08/29 05:19:09;;;;;;;2.28;2.08;;;;;;;;;;6338869;22;20149;-59
2021/08/29 05:21:34;;;;;;;2.08;1.88;;;;;;;;;;6338907;22;20188;-59
2021/08/29 05:24:00;;;;;;;3.33;2.65;;;;;;;;;;6338865;22;20134;-59
2021/08/29 05:26:26;;;;;;;3.60;2.22;;;;;;;;;;6338848;22;20153;-59
2021/08/29 05:28:52;;;;;;;2.58;2.17;;;;;;;;;;6338896;22;20137;-59
2021/08/29 05:31:18;;;;;;;2.95;2.08;;;;;;;;;;6338912;22;20255;-59
2021/08/29 05:33:44;;;;;;;3.08;2.53;;;;;;;;;;6338849;22;20142;-59
2021/08/29 05:36:10;;;;;;;2.25;1.90;;;;;;;;;;6339367;22;20149;-59
2021/08/29 05:38:36;;;;;;;3.17;2.03;;;;;;;;;;6338889;22;20145;-58
2021/08/29 05:41:02;;;;;;;2.08;1.77;;;;;;;;;;6338895;22;20158;-59
2021/08/29 05:43:28;;;;;;;2.70;2.40;;;;;;;;;;6339354;22;20138;-59
2021/08/29 05:45:53;;;;;;;2.55;2.00;;;;;;;;;;6339514;22;20681;-59
2021/08/29 05:48:19;;;;;;;3.42;1.92;;;;;;;;;;6339405;22;20191;-58
2021/08/29 05:50:45;;;;;;;2.15;1.90;;;;;;;;;;6339252;22;20138;-58
2021/08/29 05:53:11;;;;;;;2.38;2.17;;;;;;;;;;6339364;22;20142;-59
2021/08/29 05:55:37;;;;;;;2.47;2.28;;;;;;;;;;6339193;22;20168;-58
2021/08/29 05:58:04;;;;;;;3.25;2.90;;;;;;;;;;6339629;22;20138;-58
2021/08/29 06:00:29;;;;;;;2.88;2.50;;;;;;;;;;6339118;22;20138;-58
2021/08/29 06:02:55;;;;;;;2.88;2.33;;;;;;;;;;6339629;22;20145;-58
2021/08/29 06:05:21;;;;;;;4.00;2.45;;;;;;;;;;6339198;22;20409;-58
2021/08/29 06:07:47;;;;;;;2.25;2.05;;;;;;;;;;6339204;22;20239;-58
2021/08/29 06:10:13;;;;;;;2.60;2.40;;;;;;;;;;6338920;22;20221;-58
2021/08/29 06:12:40;;;;;;;3.42;2.50;;;;;;;;;;6339013;22;20225;-58
2021/08/29 06:15:06;;;;;;;3.00;2.42;;;;;;;;;;6338840;22;20153;-58
2021/08/29 06:17:32;;;;;;;4.85;2.95;;;;;;;;;;6338757;22;20145;-58
2021/08/29 06:19:58;;;;;;;4.75;4.03;;;;;;;;;;6338749;22;20137;-58
2021/08/29 06:22:24;;;;;;;2.60;2.33;;;;;;;;;;6338692;22;20169;-58
2021/08/29 06:24:50;;;;;;;3.67;2.42;;;;;;;;;;6338899;22;20142;-58
2021/08/29 06:27:16;;;;;;;2.67;2.10;;;;;;;;;;6338645;22;20592;-58
2021/08/29 06:29:42;;;;;;;3.20;1.90;;;;;;;;;;6338534;22;20138;-58
2021/08/29 06:32:08;;;;;;;2.35;1.83;;;;;;;;;;6338636;22;20194;-58
2021/08/29 06:34:34;;;;;;;2.75;1.65;;;;;;;;;;6338530;22;20766;-58
2021/08/29 06:37:00;;;;;;;1.92;1.80;;;;;;;;;;6338954;22;20141;-58
2021/08/29 06:39:26;;;;;;;3.78;2.53;;;;;;;;;;6338500;22;20195;-58
2021/08/29 06:41:52;;;;;;;4.47;2.53;;;;;;;;;;6338825;22;20466;-58
2021/08/29 06:44:18;;;;;;;2.35;2.10;;;;;;;;;;6338476;22;20145;-59
2021/08/29 06:46:44;;;;;;;3.03;2.03;;;;;;;;;;6338534;22;20571;-58
2021/08/29 06:49:10;;;;;;;3.30;2.10;;;;;;;;;;6338366;22;20483;-58
2021/08/29 06:51:36;;;;;;;3.35;1.92;;;;;;;;;;6338455;22;20148;-58
2021/08/29 06:54:02;;;;;;;1.58;0.95;;;;;;;;;;6338775;22;20146;-58
2021/08/29 06:56:28;;;;;;;1.92;1.17;;;;;;;;;;6338367;22;20616;-58
2021/08/29 06:58:54;;;;;;;1.23;1.10;;;;;;;;;;6338301;22;20144;-58
2021/08/29 07:01:20;;;;;;;1.25;0.90;;;;;;;;;;6338553;22;20166;-58
2021/08/29 07:03:46;;;;;;;0.82;0.82;;;;;;;;;;6338732;22;20134;-58
2021/08/29 07:06:11;;;;;;;0.82;0.82;;;;;;;;;;6338255;22;20138;-58
2021/08/29 07:08:37;;;;;;;0.80;0.80;;;;;;;;;;6338291;22;20219;-58
2021/08/29 07:11:03;;;;;;;0.80;0.80;;;;;;;;;;6338175;22;20138;-58
2021/08/29 07:13:30;;;;;;;0.80;0.77;;;;;;;;;;6338277;22;20148;-58
2021/08/29 07:15:56;;;;;;;0.60;0.60;;;;;;;;;;6338350;22;20219;-58
2021/08/29 07:18:22;;;;;;;0.60;0.60;;;;;;;;;;6338208;22;20138;-58
2021/08/29 07:20:48;;;;;;;0.65;0.65;;;;;;;;;;6337876;22;20176;-58
2021/08/29 07:23:14;;;;;;;0.75;0.70;;;;;;;;;;6337863;22;20141;-58
2021/08/29 07:25:40;;;;;;;0.80;0.80;;;;;;;;;;6338284;22;20156;-59
2021/08/29 07:28:06;;;;;;;1.20;0.90;;;;;;;;;;6338449;22;20139;-58
2021/08/29 07:30:33;;;;;;;0.80;0.80;;;;;;;;;;6339667;22;20146;-58
2021/08/29 07:32:59;;;;;;;1.23;1.10;;;;;;;;;;6339979;22;20142;-59
2021/08/29 07:35:24;;;;;;;1.50;0.82;;;;;;;;;;6339524;22;20449;-58
2021/08/29 07:37:50;;;;;;;0.90;0.85;;;;;;;;;;6339940;22;20153;-58
2021/08/29 07:40:19;;;;;;;1.10;1.00;;;;;;;;;;6339465;22;20145;-58
2021/08/29 07:42:45;;;;;;;2.47;1.88;;;;;;;;;;6339754;22;20161;-58
2021/08/29 07:45:11;;;;;;;3.25;2.10;;;;;;;;;;6339335;22;20419;-59
2021/08/29 07:47:37;;;;;;;3.65;2.80;;;;;;;;;;6339246;22;20145;-58
2021/08/29 07:50:04;;;;;;;5.07;3.72;;;;;;;;;;6339030;22;20141;-59
2021/08/29 07:52:29;;;;;;;5.82;4.53;;;;;;;;;;6339422;22;20221;-58
2021/08/29 07:54:55;;;;;;;7.97;5.55;;;;;;;;;;6339048;22;20190;-59
2021/08/29 07:57:21;;;;;;;10.32;7.55;;;;;;;;;;6339139;22;20279;-58
2021/08/29 07:59:47;;;;;;;11.68;7.85;;;;;;;;;;6339511;22;20149;-59
2021/08/29 08:02:15;;;;;;;12.07;8.27;;;;;;;;;;6338934;22;20172;-58
2021/08/29 08:04:41;;;;;;;12.70;9.00;;;;;;;;;;6339149;22;20138;-58
2021/08/29 08:07:07;;;;;;;13.40;9.23;;;;;;;;;;6338965;22;20569;-58
2021/08/29 08:09:32;;;;;;;14.32;9.65;;;;;;;;;;6339474;22;20168;-58
2021/08/29 08:11:58;;;;;;;15.40;10.55;;;;;;;;;;6339026;22;20142;-58
2021/08/29 08:14:24;;;;;;;15.05;10.27;;;;;;;;;;6339035;22;20561;-58
2021/08/29 08:16:50;;;;;;;14.60;10.35;;;;;;;;;;6338947;22;20217;-58
2021/08/29 08:19:16;;;;;;;16.38;10.18;;;;;;;;;;6339292;22;20150;-58
2021/08/29 08:21:42;;;;;;;13.20;8.95;;;;;;;;;;6338828;22;20223;-58
2021/08/29 08:24:08;;;;;;;11.95;8.43;;;;;;;;;;6338981;22;20146;-58
2021/08/29 08:26:34;;;;;;;10.27;7.93;;;;;;;;;;6338798;22;20158;-58
2021/08/29 08:29:00;;;;;;;12.40;7.93;;;;;;;;;;6339000;22;20188;-58
2021/08/29 08:31:26;;;;;;;12.02;8.32;;;;;;;;;;6338923;22;20169;-58
2021/08/29 08:33:52;;;;;;;11.65;8.40;;;;;;;;;;6339325;22;20145;-58
2021/08/29 08:36:18;;;;;;;9.73;7.82;;;;;;;;;;6339195;22;20146;-59
2021/08/29 08:38:44;;;;;;;9.40;7.10;;;;;;;;;;6339095;22;20217;-58
2021/08/29 08:41:10;;;;;;;9.98;7.15;;;;;;;;;;6339253;22;20170;-58
2021/08/29 08:43:36;;;;;;;8.85;6.78;;;;;;;;;;6339077;22;20138;-58
2021/08/29 08:46:03;;;;;;;7.80;6.65;;;;;;;;;;6338941;22;20137;-58
2021/08/29 08:48:29;;;;;;;8.40;6.72;;;;;;;;;;6339407;22;20271;-59
2021/08/29 08:50:56;;;;;;;9.35;7.03;;;;;;;;;;6338978;22;20142;-58
2021/08/29 08:53:23;;;;;;;9.15;7.28;;;;;;;;;;6339117;22;20236;-58
2021/08/29 08:55:51;;;;;;;9.45;6.82;;;;;;;;;;6339365;22;20188;-58
2021/08/29 08:58:17;;;;;;;8.40;6.82;;;;;;;;;;6311779;22;20493;-58
2021/08/29 09:00:44;;;;;;;8.57;6.90;;;;;;;;;;6339054;22;20138;-58
2021/08/29 09:03:10;;;;;;;10.18;7.72;;;;;;;;;;6339643;22;20173;-58
2021/08/29 09:05:37;;;;;;;9.57;7.20;;;;;;;;;;6339427;22;20176;-58
2021/08/29 09:08:03;;;;;;;8.90;7.10;;;;;;;;;;6339990;22;20220;-60
2021/08/29 09:10:29;;;;;;;7.95;6.55;;;;;;;;;;6339473;22;20446;-57
2021/08/29 09:12:56;;;;;;;8.15;6.60;;;;;;;;;;6339234;22;20359;-59
2021/08/29 09:15:22;;;;;;;8.40;6.68;;;;;;;;;;6339305;22;20148;-59
2021/08/29 09:17:48;;;;;;;10.60;6.72;;;;;;;;;;6339162;22;20517;-59
2021/08/29 09:20:24;;;;;;;8.23;6.75;;;;;;;;;;6339142;22;20224;-59
2021/08/29 09:22:52;;;;;;;7.68;6.45;;;;;;;;;;6338971;22;20166;-58
2021/08/29 09:25:19;;;;;;;7.95;7.00;;;;;;;;;;6339203;22;20154;-59
2021/08/29 09:27:46;;;;;;;8.57;6.38;;;;;;;;;;6339354;22;20126;-59
2021/08/29 09:30:13;;;;;;;7.85;6.60;;;;;;;;;;6339005;22;20134;-59
2021/08/29 09:32:53;;;;;;;11.07;8.43;;;;;;;;;;6339200;22;20149;-59
2021/08/29 09:35:20;;;;;;;10.20;7.47;;;;;;;;;;6339218;22;20195;-59
2021/08/29 09:37:46;;;;;;;11.20;8.18;;;;;;;;;;6339054;22;20218;-58
2021/08/29 09:40:16;;;;;;;9.63;7.35;;;;;;;;;;6338784;22;20564;-59
2021/08/29 09:42:43;;;;;;;11.30;7.68;;;;;;;;;;6338617;22;20226;-59
2021/08/29 09:45:09;;;;;;;10.70;8.32;;;;;;;;;;6339088;22;20149;-59
2021/08/29 09:47:35;;;;;;;9.80;7.20;;;;;;;;;;6338601;22;20566;-59
2021/08/29 09:50:04;;;;;;;14.02;7.70;;;;;;;;;;6339075;22;20141;-59
2021/08/29 09:52:30;;;;;;;9.20;5.90;;;;;;;;;;6338252;22;20137;-59
2021/08/29 09:54:56;;;;;;;7.45;5.57;;;;;;;;;;6338602;22;20138;-59
2021/08/29 09:57:22;;;;;;;6.43;5.32;;;;;;;;;;6338441;22;20168;-59
2021/08/29 09:59:49;;;;;;;8.18;5.60;;;;;;;;;;6338484;22;20142;-59
2021/08/29 10:02:20;;;;;;;6.88;5.65;;;;;;;;;;6338324;22;20177;-59
2021/08/29 10:04:46;;;;;;;10.77;6.88;;;;;;;;;;6338813;22;20142;-59
2021/08/29 10:07:13;;;;;;;9.50;7.10;;;;;;;;;;6338447;22;20166;-59
2021/08/29 10:09:40;;;;;;;9.95;7.60;;;;;;;;;;6338510;22;20133;-59
2021/08/29 10:12:07;;;;;;;11.85;7.47;;;;;;;;;;6338606;22;20156;-59
2021/08/29 10:14:33;;;;;;;9.50;7.32;;;;;;;;;;6338285;22;20584;-59
2021/08/29 10:16:59;;;;;;;9.60;7.18;;;;;;;;;;6338575;22;20161;-59
2021/08/29 10:19:27;;;;;;;8.68;6.95;;;;;;;;;;6338378;22;20543;-59
2021/08/29 10:21:53;;;;;;;10.40;7.75;;;;;;;;;;6338075;22;20203;-59
2021/08/29 10:24:20;;;;;;;9.98;7.28;;;;;;;;;;6338252;22;20133;-58
2021/08/29 10:26:46;;;;;;;9.75;7.32;;;;;;;;;;6338112;22;20157;-58
2021/08/29 10:29:17;;;;;;;11.52;7.70;;;;;;;;;;6310882;22;20482;-58
2021/08/29 10:31:49;;;;;;;9.18;7.32;;;;;;;;;;6338504;22;20623;-58
2021/08/29 10:34:15;;;;;;;10.68;7.75;;;;;;;;;;6338253;22;20152;-59
2021/08/29 10:36:41;;;;;;;10.95;7.70;;;;;;;;;;6338152;22;20142;-58
2021/08/29 10:39:07;;;;;;;10.10;8.15;;;;;;;;;;6338240;22;20173;-59
2021/08/29 10:41:33;;;;;;;11.95;8.85;;;;;;;;;;6338148;22;20165;-59
2021/08/29 10:43:59;;;;;;;11.70;8.23;;;;;;;;;;6338122;22;20134;-58
2021/08/29 10:46:25;;;;;;;10.63;8.27;;;;;;;;;;6338220;22;20233;-59
2021/08/29 10:48:52;;;;;;;10.70;8.73;;;;;;;;;;6337998;22;20608;-58
2021/08/29 10:51:19;;;;;;;12.70;8.65;;;;;;;;;;6338504;22;20236;-59
2021/08/29 10:53:50;;;;;;;11.93;8.73;;;;;;;;;;6338028;22;20146;-58
2021/08/29 10:56:16;;;;;;;9.43;8.07;;;;;;;;;;6338399;22;20229;-59
2021/08/29 10:58:42;;;;;;;13.30;8.07;;;;;;;;;;6337841;22;20142;-58
2021/08/29 11:01:26;;;;;;;10.27;8.38;;;;;;;;;;6337942;22;20218;-59
2021/08/29 11:03:52;;;;;;;10.00;8.27;;;;;;;;;;6338732;22;20150;-58
2021/08/29 11:06:43;;;;;;;11.40;9.15;;;;;;;;;;6339851;22;20422;-58
2021/08/29 11:09:28;;;;;;;10.52;8.43;;;;;;;;;;6339817;22;20424;-58
2021/08/29 11:11:54;;;;;;;11.82;7.78;;;;;;;;;;6339864;22;20189;-58
2021/08/29 11:14:38;;;;;;;11.43;8.48;;;;;;;;;;6339776;22;20626;-58
2021/08/29 11:17:10;;;;;;;12.95;8.68;;;;;;;;;;6339667;22;20146;-57
2021/08/29 11:19:40;;;;;;;9.25;7.63;;;;;;;;;;6339728;22;20252;-59
2021/08/29 11:22:09;;;;;;;12.60;9.15;;;;;;;;;;6339535;22;20162;-59
2021/08/29 11:24:48;;;;;;;12.68;8.70;;;;;;;;;;6339542;22;20573;-59
2021/08/29 11:27:38;;;;;;;12.10;9.32;;;;;;;;;;6339235;22;20160;-57
2021/08/29 11:30:09;;;;;;;13.68;9.40;;;;;;;;;;6339887;22;20147;-63
2021/08/29 11:32:43;;;;;;;14.30;9.15;;;;;;;;;;6339475;22;20150;-64
2021/08/29 11:35:10;;;;;;;13.70;9.95;;;;;;;;;;6339861;22;20129;-64
2021/08/29 11:37:36;;;;;;;12.85;9.68;;;;;;;;;;6339441;22;20156;-63
2021/08/29 11:40:03;;;;;;;12.93;10.02;;;;;;;;;;6339803;22;20149;-64
2021/08/29 11:42:29;;;;;;;14.20;10.45;;;;;;;;;;6339309;22;20175;-64
2021/08/29 11:44:56;;;;;;;14.70;10.15;;;;;;;;;;6339551;22;20427;-63
2021/08/29 11:47:25;;;;;;;12.85;9.85;;;;;;;;;;6339487;22;20140;-63
2021/08/29 11:49:55;;;;;;;14.00;9.95;;;;;;;;;;6339910;22;20213;-62
2021/08/29 11:52:27;;;;;;;14.20;10.18;;;;;;;;;;6339505;22;20172;-62
2021/08/29 11:55:07;;;;;;;13.45;10.25;;;;;;;;;;6339541;22;20148;-62
2021/08/29 11:57:45;;;;;;;13.52;10.15;;;;;;;;;;6339444;22;20232;-63
2021/08/29 12:00:11;;;;;;;15.15;10.23;;;;;;;;;;6339829;22;20129;-65
2021/08/29 12:02:37;;;;;;;13.77;9.85;;;;;;;;;;6339227;22;20195;-63
2021/08/29 12:05:10;;;;;;;13.32;9.85;;;;;;;;;;6312340;22;20156;-63
2021/08/29 12:07:37;;;;;;;13.50;9.48;;;;;;;;;;6339377;22;20145;-62
2021/08/29 12:10:04;;;;;;;16.65;10.18;;;;;;;;;;6339513;22;20138;-63
2021/08/29 12:12:31;;;;;;;13.10;9.68;;;;;;;;;;6339861;22;20141;-63
2021/08/29 12:14:57;;;;;;;13.15;10.23;;;;;;;;;;6339363;22;20145;-63
2021/08/29 12:17:25;;;;;;;14.13;9.55;;;;;;;;;;6339680;22;20169;-64
2021/08/29 12:19:51;;;;;;;12.70;10.02;;;;;;;;;;6339669;22;20180;-63
2021/08/29 12:22:17;;;;;;;13.15;10.10;;;;;;;;;;6340213;22;20250;-63
2021/08/29 12:24:44;;;;;;;12.57;9.55;;;;;;;;;;6339727;22;20634;-63
2021/08/29 12:27:11;;;;;;;15.20;10.07;;;;;;;;;;6339857;22;20224;-63
2021/08/29 12:29:49;;;;;;;12.38;9.80;;;;;;;;;;6340128;22;20215;-62
2021/08/29 12:32:20;;;;;;;12.93;9.98;;;;;;;;;;6340253;22;20172;-62
2021/08/29 12:34:52;;;;;;;13.38;9.98;;;;;;;;;;6339770;22;20562;-64
2021/08/29 12:37:18;;;;;;;14.63;10.57;;;;;;;;;;6339985;22;20152;-64
2021/08/29 12:39:54;;;;;;;15.05;10.57;;;;;;;;;;6339748;22;20138;-63
2021/08/29 12:42:21;;;;;;;13.80;9.75;;;;;;;;;;6339822;22;20214;-62
2021/08/29 12:44:48;;;;;;;12.40;9.90;;;;;;;;;;6340109;22;20151;-62
2021/08/29 12:47:14;;;;;;;14.15;9.68;;;;;;;;;;6340162;22;20206;-62
2021/08/29 12:49:40;;;;;;;12.88;9.82;;;;;;;;;;6339689;22;20141;-63
2021/08/29 12:52:07;;;;;;;12.35;10.10;;;;;;;;;;6339772;22;20538;-63
2021/08/29 12:54:33;;;;;;;14.30;10.60;;;;;;;;;;6339558;22;20187;-63
2021/08/29 12:56:59;;;;;;;14.18;9.80;;;;;;;;;;6339526;22;20233;-63
2021/08/29 12:59:29;;;;;;;13.35;10.35;;;;;;;;;;6339395;22;20242;-63
2021/08/29 13:01:56;;;;;;;12.65;9.70;;;;;;;;;;6339577;22;20178;-63
2021/08/29 13:04:26;;;;;;;13.25;10.23;;;;;;;;;;6339738;22;20152;-63
2021/08/29 13:07:21;;;;;;;14.38;10.88;;;;;;;;;;6339728;22;20146;-63
2021/08/29 13:09:47;;;;;;;14.50;10.77;;;;;;;;;;6313264;22;20206;-63
2021/08/29 13:12:23;;;;;;;15.10;10.18;;;;;;;;;;6339354;22;20572;-63
2021/08/29 13:14:49;;;;;;;12.45;10.35;;;;;;;;;;6339616;22;20141;-63
2021/08/29 13:17:22;;;;;;;13.27;10.02;;;;;;;;;;6339271;22;20142;-63
2021/08/29 13:19:58;;;;;;;15.00;9.80;;;;;;;;;;6339490;22;20232;-63
2021/08/29 13:22:30;;;;;;;13.80;9.88;;;;;;;;;;6339214;22;20670;-63
2021/08/29 13:24:57;;;;;;;13.82;9.70;;;;;;;;;;6339386;22;20126;-62
2021/08/29 13:27:23;;;;;;;11.98;9.90;;;;;;;;;;6338859;22;20137;-63
2021/08/29 13:29:55;;;;;;;11.68;9.52;;;;;;;;;;6339511;22;20176;-63
2021/08/29 13:32:30;;;;;;;11.60;8.95;;;;;;;;;;6339310;22;20126;-63
2021/08/29 13:35:08;;;;;;;14.57;9.85;;;;;;;;;;6339651;22;20133;-63
2021/08/29 13:37:34;;;;;;;12.20;9.60;;;;;;;;;;6339220;22;20157;-63
2021/08/29 13:40:02;;;;;;;13.68;9.70;;;;;;;;;;6339324;22;20146;-63
2021/08/29 13:42:29;;;;;;;12.68;9.38;;;;;;;;;;6338970;22;20161;-63
2021/08/29 13:44:56;;;;;;;12.43;8.82;;;;;;;;;;6339177;22;20418;-63
2021/08/29 13:47:22;;;;;;;13.40;9.02;;;;;;;;;;6338846;22;20145;-63
2021/08/29 13:49:48;;;;;;;14.35;9.45;;;;;;;;;;6339013;22;20141;-63
2021/08/29 13:52:21;;;;;;;12.80;9.48;;;;;;;;;;6338706;22;20141;-62
2021/08/29 13:54:48;;;;;;;11.73;9.70;;;;;;;;;;6339426;22;20155;-63
2021/08/29 13:57:14;;;;;;;13.93;10.23;;;;;;;;;;6338715;22;20577;-62
2021/08/29 13:59:40;;;;;;;14.43;10.95;;;;;;;;;;6338683;22;20491;-61
2021/08/29 14:02:05;;;;;;;14.60;10.27;;;;;;;;;;6338531;22;20165;-63
2021/08/29 14:04:31;;;;;;;12.75;10.15;;;;;;;;;;6338590;22;20200;-63
2021/08/29 14:06:57;;;;;;;13.25;10.52;;;;;;;;;;6338978;22;20145;-63
2021/08/29 14:09:23;;;;;;;13.68;10.05;;;;;;;;;;6338488;22;20141;-63
2021/08/29 14:11:49;;;;;;;13.23;10.20;;;;;;;;;;6338897;22;20142;-63
2021/08/29 14:14:18;;;;;;;13.20;9.93;;;;;;;;;;6338515;22;20137;-63
2021/08/29 14:16:44;;;;;;;13.07;9.80;;;;;;;;;;6338978;22;20146;-63
2021/08/29 14:19:10;;;;;;;12.13;9.70;;;;;;;;;;6338514;22;20198;-63
2021/08/29 14:21:38;;;;;;;14.73;10.05;;;;;;;;;;6338431;22;20165;-63
2021/08/29 14:24:04;;;;;;;13.18;10.15;;;;;;;;;;6338192;22;20608;-63
2021/08/29 14:26:30;;;;;;;12.60;9.85;;;;;;;;;;6338213;22;20177;-62
2021/08/29 14:28:56;;;;;;;12.38;10.25;;;;;;;;;;6338724;22;20151;-62
2021/08/29 14:31:22;;;;;;;13.85;10.70;;;;;;;;;;6338086;22;20216;-62
2021/08/29 14:33:48;;;;;;;13.68;10.68;;;;;;;;;;6338380;22;20497;-64
2021/08/29 14:36:14;;;;;;;12.57;10.35;;;;;;;;;;6338110;22;20142;-62